createdAt,value
2023-02-11T00:00:57.312Z,70.88
2023-02-11T00:03:42.865Z,67.13
2023-02-11T00:06:29.559Z,76.45
2023-02-11T00:09:15.141Z,70.20
2023-02-11T00:12:00.681Z,45.65
2023-02-11T00:14:46.210Z,72.60
2023-02-11T00:17:32.457Z,71.93
2023-02-11T00:20:18.027Z,60.92
2023-02-11T00:23:03.413Z,76.22
2023-02-11T00:25:48.837Z,68.82
2023-02-11T00:28:34.506Z,70.07
2023-02-11T00:31:22.102Z,60.58
2023-02-11T00:34:07.898Z,59.72
2023-02-11T00:36:55.039Z,69.65
2023-02-11T00:39:40.283Z,62.55
2023-02-11T00:42:25.642Z,54.38
2023-02-11T00:45:11.127Z,56.22
2023-02-11T00:47:57.271Z,61.45
2023-02-11T00:50:42.730Z,62.67
2023-02-11T00:53:27.861Z,54.50
2023-02-11T00:56:13.088Z,45.00
2023-02-11T00:58:58.643Z,53.83
2023-02-11T01:01:51.768Z,51.90
2023-02-11T01:04:47.242Z,50.50
2023-02-11T01:07:32.687Z,56.45
2023-02-11T01:10:18.148Z,59.33
2023-02-11T01:13:03.801Z,57.17
2023-02-11T01:15:49.711Z,57.65
2023-02-11T01:18:36.750Z,57.15
2023-02-11T01:21:22.697Z,72.80
2023-02-11T01:24:10.118Z,65.75
2023-02-11T01:26:56.289Z,37.85
2023-02-11T01:29:42.696Z,50.20
2023-02-11T01:32:28.074Z,57.20
2023-02-11T01:35:14.217Z,52.53
2023-02-11T01:37:59.568Z,54.08
2023-02-11T01:40:56.902Z,36.13
2023-02-11T01:43:47.980Z,30.40
2023-02-11T01:46:38.282Z,28.40
2023-02-11T01:49:30.857Z,51.75
2023-02-11T01:52:37.654Z,31.02
2023-02-11T01:55:41.724Z,23.65
2023-02-11T01:58:28.794Z,57.17
2023-02-11T02:01:19.685Z,32.30
2023-02-11T02:04:05.974Z,47.88
2023-02-11T02:06:56.537Z,29.15
2023-02-11T02:09:45.746Z,39.53
2023-02-11T02:12:31.147Z,45.60
2023-02-11T02:15:19.861Z,32.42
2023-02-11T02:18:23.481Z,51.67
2023-02-11T02:21:30.969Z,47.38
2023-02-11T02:24:49.129Z,35.08
2023-02-11T02:28:12.483Z,36.20
2023-02-11T02:31:24.421Z,48.03
2023-02-11T02:34:17.735Z,36.38
2023-02-11T02:37:15.422Z,41.50
2023-02-11T02:40:04.868Z,29.90
2023-02-11T02:42:51.153Z,27.20
2023-02-11T02:45:36.927Z,38.70
2023-02-11T02:48:29.255Z,40.30
2023-02-11T02:51:33.700Z,49.20
2023-02-11T02:54:40.628Z,37.83
2023-02-11T03:01:13.803Z,24.95
2023-02-11T03:04:18.380Z,40.58
2023-02-11T03:07:23.019Z,28.63
2023-02-11T03:10:25.862Z,25.15
2023-02-11T03:13:12.007Z,19.08
2023-02-11T03:15:58.826Z,33.15
2023-02-11T03:18:49.952Z,35.60
2023-02-11T03:21:37.841Z,32.33
2023-02-11T03:24:32.138Z,35.03
2023-02-11T03:27:45.096Z,31.45
2023-02-11T03:30:34.941Z,33.85
2023-02-11T03:33:31.161Z,32.03
2023-02-11T03:36:22.189Z,25.83
2023-02-11T03:39:10.074Z,19.08
2023-02-11T03:41:56.304Z,35.60
2023-02-11T03:44:47.756Z,39.45
2023-02-11T03:47:36.191Z,15.75
2023-02-11T03:50:22.424Z,32.70
2023-02-11T03:53:08.092Z,45.33
2023-02-11T03:55:55.557Z,31.42
2023-02-11T03:58:41.315Z,40.92
2023-02-11T04:01:26.778Z,20.27
2023-02-11T04:04:13.195Z,38.45
2023-02-11T04:06:58.484Z,24.67
2023-02-11T04:09:43.816Z,35.13
2023-02-11T04:12:29.138Z,33.42
2023-02-11T04:15:14.420Z,41.42
2023-02-11T04:17:59.821Z,36.42
2023-02-11T04:20:45.302Z,17.13
2023-02-11T04:23:30.731Z,13.90
2023-02-11T04:26:16.475Z,28.92
2023-02-11T04:29:02.018Z,43.58
2023-02-11T04:31:47.448Z,39.58
2023-02-11T04:34:32.805Z,26.30
2023-02-11T04:37:18.343Z,30.85
2023-02-11T04:40:04.603Z,26.33
2023-02-11T04:42:50.222Z,21.48
2023-02-11T04:45:35.640Z,38.55
2023-02-11T04:48:21.061Z,21.55
2023-02-11T04:51:06.632Z,34.13
2023-02-11T04:53:52.427Z,20.58
2023-02-11T04:56:38.396Z,33.47
2023-02-11T04:59:23.980Z,18.52
2023-02-11T05:02:09.359Z,18.38
2023-02-11T05:04:55.042Z,25.55
2023-02-11T05:07:40.461Z,21.48
2023-02-11T05:10:27.218Z,28.30
2023-02-11T05:13:12.870Z,26.73
2023-02-11T05:15:58.171Z,33.85
2023-02-11T05:18:44.915Z,21.50
2023-02-11T05:21:30.653Z,27.23
2023-02-11T05:24:16.222Z,36.70
2023-02-11T05:27:02.066Z,36.58
2023-02-11T05:29:47.616Z,34.00
2023-02-11T05:32:33.706Z,13.23
2023-02-11T05:35:19.514Z,26.52
2023-02-11T05:38:04.954Z,28.35
2023-02-11T05:40:51.292Z,46.00
2023-02-11T05:43:36.767Z,39.70
2023-02-11T05:46:22.358Z,31.77
2023-02-11T05:49:07.752Z,31.67
2023-02-11T05:51:53.097Z,16.42
2023-02-11T05:54:38.829Z,29.17
2023-02-11T05:57:24.220Z,19.95
2023-02-11T06:00:10.668Z,28.15
2023-02-11T06:02:59.155Z,24.00
2023-02-11T06:05:45.060Z,20.73
2023-02-11T06:08:30.720Z,27.35
2023-02-11T06:11:16.640Z,14.23
2023-02-11T06:14:02.330Z,12.50
2023-02-11T06:16:47.796Z,18.98
2023-02-11T06:19:33.343Z,22.73
2023-02-11T06:22:18.997Z,17.98
2023-02-11T06:25:04.728Z,25.95
2023-02-11T06:27:51.310Z,21.48
2023-02-11T06:30:42.582Z,12.05
2023-02-11T06:33:28.929Z,27.90
2023-02-11T06:36:19.220Z,16.65
2023-02-11T06:39:05.208Z,27.67
2023-02-11T06:42:23.017Z,20.40
2023-02-11T06:45:11.128Z,28.27
2023-02-11T06:47:56.788Z,27.63
2023-02-11T06:50:42.072Z,37.22
2023-02-11T06:53:27.713Z,25.98
2023-02-11T06:56:18.823Z,8.77
2023-02-11T06:59:04.324Z,40.28
2023-02-11T07:01:49.992Z,21.35
2023-02-11T07:04:35.725Z,14.77
2023-02-11T07:07:21.570Z,20.40
2023-02-11T07:10:08.717Z,30.65
2023-02-11T07:12:57.090Z,40.15
2023-02-11T07:15:44.412Z,20.25
2023-02-11T07:18:30.426Z,14.48
2023-02-11T07:21:19.341Z,23.45
2023-02-11T07:24:11.605Z,16.00
2023-02-11T07:26:57.411Z,18.13
2023-02-11T07:29:43.238Z,24.73
2023-02-11T07:32:29.100Z,40.72
2023-02-11T07:35:15.020Z,49.10
2023-02-11T07:38:00.474Z,34.08
2023-02-11T07:40:45.864Z,21.67
2023-02-11T07:43:32.520Z,36.90
2023-02-11T07:46:20.744Z,16.00
2023-02-11T07:49:06.175Z,9.10
2023-02-11T07:51:51.838Z,20.33
2023-02-11T07:54:37.409Z,13.18
2023-02-11T07:57:22.929Z,27.52
2023-02-11T08:00:08.968Z,13.10
2023-02-11T08:02:58.208Z,30.98
2023-02-11T08:05:43.953Z,18.05
2023-02-11T08:08:31.120Z,40.75
2023-02-11T08:11:28.473Z,28.45
2023-02-11T08:14:14.066Z,26.58
2023-02-11T08:16:59.401Z,17.65
2023-02-11T08:19:55.436Z,24.67
2023-02-11T08:23:00.596Z,25.20
2023-02-11T08:26:24.928Z,32.78
2023-02-11T08:35:12.685Z,24.95
2023-02-11T08:37:58.286Z,11.93
2023-02-11T08:40:43.824Z,16.80
2023-02-11T08:43:29.231Z,38.35
2023-02-11T08:46:17.632Z,24.77
2023-02-11T08:49:03.532Z,35.55
2023-02-11T08:51:49.754Z,29.63
2023-02-11T08:54:35.455Z,27.17
2023-02-11T08:57:20.868Z,27.50
2023-02-11T09:00:08.336Z,19.90
2023-02-11T09:02:54.321Z,38.95
2023-02-11T09:05:47.191Z,10.75
2023-02-11T09:08:46.381Z,49.03
2023-02-11T09:11:34.978Z,42.50
2023-02-11T09:14:22.183Z,15.77
2023-02-11T09:17:07.699Z,15.75
2023-02-11T09:20:03.514Z,25.65
2023-02-11T09:22:49.161Z,22.40
2023-02-11T09:25:34.617Z,44.85
2023-02-11T09:28:19.973Z,45.00
2023-02-11T09:31:07.395Z,45.95
2023-02-11T09:33:56.617Z,44.58
2023-02-11T09:36:42.434Z,34.10
2023-02-11T09:39:31.801Z,46.03
2023-02-11T09:42:26.999Z,12.55
2023-02-11T09:45:21.645Z,36.55
2023-02-11T09:48:17.849Z,25.63
2023-02-11T09:51:04.431Z,50.65
2023-02-11T09:53:51.688Z,38.80
2023-02-11T09:56:37.181Z,42.95
2023-02-11T09:59:23.698Z,43.72
2023-02-11T10:02:22.564Z,14.38
2023-02-11T10:05:56.059Z,54.90
2023-02-11T10:09:05.944Z,27.95
2023-02-11T10:12:43.335Z,26.73
2023-02-11T10:15:49.198Z,25.65
2023-02-11T10:18:49.742Z,18.35
2023-02-11T10:24:25.205Z,14.38
2023-02-11T10:27:20.641Z,14.73
2023-02-11T10:30:27.772Z,23.35
2023-02-11T10:33:30.770Z,24.63
2023-02-11T10:36:18.698Z,23.67
2023-02-11T10:39:26.392Z,28.02
2023-02-11T10:42:14.335Z,36.75
2023-02-11T10:45:06.376Z,26.05
2023-02-11T10:47:52.834Z,25.65
2023-02-11T10:50:39.571Z,31.70
2023-02-11T10:53:30.971Z,34.13
2023-02-11T10:56:24.636Z,26.30
2023-02-11T10:59:41.764Z,12.90
2023-02-11T11:02:44.194Z,45.15
2023-02-11T11:05:36.766Z,26.50
2023-02-11T11:08:22.648Z,43.25
2023-02-11T11:11:10.618Z,29.08
2023-02-11T11:13:58.323Z,38.70
2023-02-11T11:16:53.557Z,9.43
2023-02-11T11:19:39.398Z,33.70
2023-02-11T11:22:24.881Z,30.83
2023-02-11T11:25:29.641Z,26.40
2023-02-11T11:28:27.226Z,23.70
2023-02-11T11:31:19.019Z,27.40
2023-02-11T11:34:51.435Z,31.88
2023-02-11T11:37:37.503Z,40.22
2023-02-11T11:40:26.128Z,25.60
2023-02-11T11:43:14.841Z,36.30
2023-02-11T11:46:01.167Z,40.13
2023-02-11T11:48:49.939Z,42.50
2023-02-11T11:51:37.871Z,34.97
2023-02-11T11:54:24.994Z,44.67
2023-02-11T11:57:15.383Z,60.70
2023-02-11T12:00:30.743Z,67.78
2023-02-11T12:03:48.557Z,24.05
2023-02-11T12:06:41.089Z,26.42
2023-02-11T12:09:27.021Z,37.42
2023-02-11T12:12:46.850Z,48.88
2023-02-11T12:16:07.254Z,36.45
2023-02-11T12:19:02.579Z,27.13
2023-02-11T12:22:20.992Z,48.35
2023-02-11T12:25:23.152Z,44.42
2023-02-11T12:28:29.953Z,37.72
2023-02-11T12:31:43.416Z,19.15
2023-02-11T12:37:53.366Z,27.50
2023-02-11T12:41:11.257Z,22.00
2023-02-11T12:43:58.257Z,40.20
2023-02-11T12:46:51.419Z,27.92
2023-02-11T12:49:36.965Z,23.70
2023-02-11T12:52:31.593Z,16.42
2023-02-11T12:55:23.348Z,33.47
2023-02-11T12:58:15.421Z,12.88
2023-02-11T13:01:09.073Z,11.75
2023-02-11T13:03:59.989Z,14.15
2023-02-11T13:06:49.597Z,12.00
2023-02-11T13:09:45.893Z,18.10
2023-02-11T13:12:51.149Z,12.35
2023-02-11T13:15:37.232Z,21.48
2023-02-11T13:18:35.435Z,24.40
2023-02-11T13:21:34.996Z,24.33
2023-02-11T13:24:38.433Z,36.85
2023-02-11T13:27:33.100Z,30.20
2023-02-11T13:30:22.589Z,23.30
2023-02-11T13:33:17.051Z,15.05
2023-02-11T13:36:04.760Z,6.68
2023-02-11T13:39:20.147Z,15.07
2023-02-11T13:42:05.823Z,25.35
2023-02-11T13:44:51.552Z,26.13
2023-02-11T13:47:37.652Z,7.03
2023-02-11T13:50:25.054Z,17.25
2023-02-11T13:53:45.498Z,19.55
2023-02-11T13:56:35.401Z,19.23
2023-02-11T13:59:54.817Z,11.98
2023-02-11T14:02:59.998Z,14.50
2023-02-11T14:06:24.605Z,31.40
2023-02-11T14:09:10.410Z,17.80
2023-02-11T14:12:24.276Z,28.13
2023-02-11T14:15:12.839Z,12.18
2023-02-11T14:17:58.550Z,12.43
2023-02-11T14:20:44.710Z,40.28
2023-02-11T14:23:31.043Z,37.67
2023-02-11T14:26:20.144Z,36.30
2023-02-11T14:29:26.599Z,42.80
2023-02-11T14:32:27.284Z,42.13
2023-02-11T14:35:28.130Z,43.45
2023-02-11T14:38:36.900Z,12.25
2023-02-11T14:41:27.474Z,48.13
2023-02-11T14:44:33.388Z,37.55
2023-02-11T14:47:21.637Z,26.20
2023-02-11T14:52:56.051Z,38.42
2023-02-11T14:55:43.602Z,40.28
2023-02-11T14:58:33.035Z,27.38
2023-02-11T15:01:32.611Z,36.63
2023-02-11T15:04:23.933Z,39.40
2023-02-11T15:07:12.464Z,43.15
2023-02-11T15:12:47.969Z,40.92
2023-02-11T15:15:35.887Z,42.28
2023-02-11T15:18:24.199Z,40.97
2023-02-11T15:24:21.549Z,32.85
2023-02-11T15:27:14.592Z,41.75
2023-02-11T15:29:59.943Z,36.00
2023-02-11T15:32:45.897Z,42.58
2023-02-11T15:35:37.353Z,23.17
2023-02-11T15:38:23.784Z,34.72
2023-02-11T15:41:38.496Z,37.35
2023-02-11T15:44:29.514Z,42.88
2023-02-11T15:47:21.989Z,41.45
2023-02-11T15:50:17.003Z,40.53
2023-02-11T15:53:23.134Z,34.55
2023-02-11T15:56:11.972Z,36.25
2023-02-11T15:59:00.173Z,39.70
2023-02-11T16:01:47.513Z,40.63
2023-02-11T16:04:33.264Z,37.22
2023-02-11T16:07:47.701Z,38.15
2023-02-11T16:10:36.075Z,37.45
2023-02-11T16:13:22.141Z,44.30
2023-02-11T16:16:18.427Z,42.08
2023-02-11T16:19:06.353Z,50.72
2023-02-11T16:21:53.288Z,43.50
2023-02-11T16:24:39.164Z,46.42
2023-02-11T16:27:32.492Z,51.92
2023-02-11T16:30:37.511Z,54.13
2023-02-11T16:33:23.466Z,50.40
2023-02-11T16:36:13.867Z,43.47
2023-02-11T16:38:59.446Z,54.85
2023-02-11T16:41:44.993Z,51.42
2023-02-11T16:44:30.545Z,78.07
2023-02-11T16:47:28.079Z,49.50
2023-02-11T16:50:24.980Z,49.38
2023-02-11T16:53:11.645Z,53.60
2023-02-11T16:55:56.859Z,38.05
2023-02-11T16:58:42.866Z,52.60
2023-02-11T17:01:28.952Z,46.30
2023-02-11T17:04:20.404Z,52.65
2023-02-11T17:07:05.853Z,50.08
2023-02-11T17:09:52.242Z,47.92
2023-02-11T17:12:37.992Z,62.25
2023-02-11T17:15:23.526Z,51.15
2023-02-11T17:18:12.353Z,53.45
2023-02-11T17:24:47.102Z,59.88
2023-02-11T17:27:58.711Z,52.25
2023-02-11T17:30:59.137Z,50.53
2023-02-11T17:33:44.605Z,55.28
2023-02-11T17:36:33.476Z,59.65
2023-02-11T17:39:21.289Z,53.50
2023-02-11T17:42:07.515Z,57.85
2023-02-11T17:44:53.148Z,79.75
2023-02-11T17:47:38.772Z,59.53
2023-02-11T17:50:24.075Z,60.63
2023-02-11T17:53:10.230Z,53.03
2023-02-11T17:55:56.874Z,92.07
2023-02-11T17:58:42.595Z,55.90
2023-02-11T18:01:29.705Z,57.67
2023-02-11T18:04:18.462Z,57.22
2023-02-11T18:07:10.594Z,96.53
2023-02-11T18:09:56.278Z,64.40
2023-02-11T18:12:41.665Z,87.20
2023-02-11T18:15:27.524Z,59.95
2023-02-11T18:18:13.118Z,48.83
2023-02-11T18:21:03.133Z,47.47
2023-02-11T18:23:49.756Z,57.28
2023-02-11T18:26:35.752Z,48.65
2023-02-11T18:29:22.147Z,52.40
2023-02-11T18:32:07.724Z,49.20
2023-02-11T18:34:53.649Z,46.97
2023-02-11T18:37:41.136Z,49.83
2023-02-11T18:40:26.818Z,42.15
2023-02-11T18:43:12.522Z,50.22
2023-02-11T18:46:02.342Z,48.00
2023-02-11T18:48:50.127Z,28.27
2023-02-11T18:51:45.587Z,41.65
2023-02-11T18:54:31.405Z,38.22
2023-02-11T18:57:17.135Z,46.45
2023-02-11T19:00:04.325Z,37.35
2023-02-11T19:02:49.833Z,39.80
2023-02-11T19:05:49.338Z,38.28
2023-02-11T19:12:40.427Z,31.48
2023-02-11T19:18:54.395Z,29.65
2023-02-11T19:21:46.396Z,30.38
2023-02-11T19:24:33.007Z,36.25
2023-02-11T19:27:18.756Z,34.38
2023-02-11T19:30:05.066Z,37.80
2023-02-11T19:32:57.111Z,32.60
2023-02-11T19:35:42.782Z,36.03
2023-02-11T19:38:28.340Z,21.67
2023-02-11T19:41:16.083Z,21.38
2023-02-11T19:44:15.215Z,33.90
2023-02-11T19:47:44.721Z,32.10
2023-02-11T19:50:37.171Z,24.98
2023-02-11T19:53:22.913Z,25.83
2023-02-11T19:56:09.988Z,29.65
2023-02-11T19:58:56.065Z,41.30
2023-02-11T20:01:53.261Z,34.60
2023-02-11T20:04:49.376Z,29.67
2023-02-11T20:07:40.269Z,33.13
2023-02-11T20:10:25.791Z,30.90
2023-02-11T20:13:20.558Z,33.92
2023-02-11T20:16:18.320Z,29.75
2023-02-11T20:19:30.724Z,22.20
2023-02-11T20:22:16.577Z,20.85
2023-02-11T20:25:03.533Z,31.13
2023-02-11T20:27:50.283Z,32.42
2023-02-11T20:31:04.058Z,24.65
2023-02-11T20:33:51.125Z,16.67
2023-02-11T20:36:38.717Z,18.77
2023-02-11T20:39:24.910Z,25.50
2023-02-11T20:42:11.841Z,22.52
2023-02-11T20:44:58.625Z,16.73
2023-02-11T20:47:43.756Z,13.80
2023-02-11T20:50:29.793Z,19.75
2023-02-11T20:53:16.952Z,19.55
2023-02-11T20:56:10.826Z,21.58
2023-02-11T20:59:00.709Z,21.98
2023-02-11T21:01:48.423Z,19.70
2023-02-11T21:04:33.817Z,20.08
2023-02-11T21:07:19.751Z,22.95
2023-02-11T21:10:31.412Z,20.65
2023-02-11T21:13:27.401Z,20.70
2023-02-11T21:16:36.553Z,18.67
2023-02-11T21:19:23.985Z,20.63
2023-02-11T21:22:15.826Z,16.45
2023-02-11T21:25:02.039Z,18.42
2023-02-11T21:27:52.022Z,21.42
2023-02-11T21:30:39.112Z,23.77
2023-02-11T21:33:26.254Z,20.20
2023-02-11T21:36:11.932Z,16.67
2023-02-11T21:38:57.440Z,23.15
2023-02-11T21:41:43.205Z,21.33
2023-02-11T21:44:29.001Z,24.88
2023-02-11T21:47:15.360Z,21.13
2023-02-11T21:50:01.116Z,19.42
2023-02-11T21:52:46.826Z,16.27
2023-02-11T21:55:32.506Z,18.77
2023-02-11T21:58:18.017Z,9.00
2023-02-11T22:01:16.757Z,17.13
2023-02-11T22:04:02.760Z,11.25
2023-02-11T22:06:48.438Z,12.18
2023-02-11T22:09:43.000Z,18.48
2023-02-11T22:13:13.038Z,18.23
2023-02-11T22:16:25.464Z,16.38
2023-02-11T22:19:25.238Z,20.85
2023-02-11T22:23:21.533Z,21.17
2023-02-11T22:26:22.265Z,17.25
2023-02-11T22:29:07.739Z,16.60
2023-02-11T22:31:56.513Z,16.92
2023-02-11T22:34:46.464Z,14.32
2023-02-11T22:37:33.971Z,15.50
2023-02-11T22:40:19.769Z,20.00
2023-02-11T22:43:05.375Z,19.75
2023-02-11T22:45:51.740Z,18.77
2023-02-11T22:49:15.784Z,16.23
2023-02-11T22:52:37.319Z,16.83
2023-02-11T22:55:28.405Z,15.82
2023-02-11T23:01:25.266Z,12.30
2023-02-11T23:04:13.850Z,17.70
2023-02-11T23:07:21.423Z,17.65
2023-02-11T23:10:18.981Z,16.10
2023-02-11T23:13:05.416Z,16.05
2023-02-11T23:15:51.172Z,18.75
2023-02-11T23:18:42.512Z,16.58
2023-02-11T23:21:30.318Z,16.83
2023-02-11T23:24:15.951Z,15.73
2023-02-11T23:27:01.482Z,15.15
2023-02-11T23:29:46.927Z,15.25
2023-02-11T23:32:32.957Z,15.48
2023-02-11T23:35:23.164Z,16.48
2023-02-11T23:38:08.929Z,14.30
2023-02-11T23:40:54.334Z,7.95
2023-02-11T23:43:40.111Z,13.27
2023-02-11T23:46:26.900Z,15.00
2023-02-11T23:49:13.119Z,12.57
2023-02-11T23:51:58.573Z,16.42
2023-02-11T23:54:44.991Z,11.05
2023-02-11T23:57:32.809Z,4.03
